createdAt,value
2022-12-11T00:00:54.707Z,-2.10
2022-12-11T00:04:17.679Z,-2.10
2022-12-11T00:07:39.276Z,-2.10
2022-12-11T00:11:00.968Z,-2.10
2022-12-11T00:14:22.982Z,-2.10
2022-12-11T00:17:44.555Z,-2.20
2022-12-11T00:21:10.850Z,-2.30
2022-12-11T00:24:32.415Z,-2.30
2022-12-11T00:27:54.000Z,-2.30
2022-12-11T00:31:19.313Z,-2.30
2022-12-11T00:34:40.950Z,-2.30
2022-12-11T00:38:03.889Z,-2.40
2022-12-11T00:41:25.609Z,-2.40
2022-12-11T00:44:47.175Z,-2.40
2022-12-11T00:48:08.797Z,-2.40
2022-12-11T00:51:30.376Z,-2.50
2022-12-11T00:54:53.301Z,-2.50
2022-12-11T00:58:15.151Z,-2.40
2022-12-11T01:01:36.781Z,-2.40
2022-12-11T01:04:58.386Z,-2.30
2022-12-11T01:08:20.264Z,-2.20
2022-12-11T01:11:43.240Z,-2.10
2022-12-11T01:15:05.330Z,-2.00
2022-12-11T01:18:26.900Z,-1.90
2022-12-11T01:21:48.491Z,-1.90
2022-12-11T01:25:10.447Z,-1.80
2022-12-11T01:28:33.513Z,-1.70
2022-12-11T01:31:55.084Z,-1.60
2022-12-11T01:35:17.112Z,-1.50
2022-12-11T01:38:38.714Z,-1.50
2022-12-11T01:42:00.913Z,-1.50
2022-12-11T01:45:27.097Z,-1.50
2022-12-11T01:48:49.107Z,-1.50
2022-12-11T01:52:12.849Z,-1.40
2022-12-11T01:55:34.500Z,-1.30
2022-12-11T01:58:57.138Z,-1.30
2022-12-11T02:02:21.507Z,-1.20
2022-12-11T02:05:43.118Z,-1.20
2022-12-11T02:09:05.431Z,-1.20
2022-12-11T02:12:31.585Z,-1.10
2022-12-11T02:15:58.893Z,-1.10
2022-12-11T02:19:29.483Z,-1.00
2022-12-11T02:23:03.081Z,-1.00
2022-12-11T02:26:36.175Z,-1.00
2022-12-11T02:30:01.120Z,-1.00
2022-12-11T02:33:26.597Z,-1.00
2022-12-11T02:36:50.779Z,-1.00
2022-12-11T02:40:14.315Z,-0.90
2022-12-11T02:43:36.304Z,-0.90
2022-12-11T02:47:00.941Z,-0.90
2022-12-11T02:50:22.918Z,-0.90
2022-12-11T02:53:45.125Z,-0.90
2022-12-11T02:57:09.094Z,-0.90
2022-12-11T03:00:30.992Z,-0.90
2022-12-11T03:03:54.077Z,-0.90
2022-12-11T03:07:19.256Z,-0.80
2022-12-11T03:10:40.827Z,-0.80
2022-12-11T03:14:02.556Z,-0.80
2022-12-11T03:17:29.027Z,-0.80
2022-12-11T03:20:55.591Z,-0.80
2022-12-11T03:24:19.964Z,-0.80
2022-12-11T03:27:44.933Z,-0.80
2022-12-11T03:31:09.898Z,-0.80
2022-12-11T03:34:33.908Z,-0.80
2022-12-11T03:37:58.659Z,-0.80
2022-12-11T03:41:21.983Z,-0.80
2022-12-11T03:44:46.468Z,-0.80
2022-12-11T03:48:09.313Z,-0.80
2022-12-11T03:51:31.513Z,-0.90
2022-12-11T03:54:56.590Z,-0.90
2022-12-11T03:58:18.223Z,-1.00
2022-12-11T04:01:40.008Z,-1.00
2022-12-11T04:05:01.645Z,-1.00
2022-12-11T04:08:23.630Z,-1.00
2022-12-11T04:11:46.590Z,-1.00
2022-12-11T04:15:08.538Z,-1.10
2022-12-11T04:18:30.260Z,-1.10
2022-12-11T04:21:51.862Z,-1.20
2022-12-11T04:25:13.734Z,-1.20
2022-12-11T04:28:37.012Z,-1.30
2022-12-11T04:31:58.681Z,-1.30
2022-12-11T04:35:20.724Z,-1.30
2022-12-11T04:38:42.340Z,-1.30
2022-12-11T04:42:03.915Z,-1.30
2022-12-11T04:45:26.838Z,-1.40
2022-12-11T04:48:53.771Z,-1.40
2022-12-11T04:52:17.374Z,-1.40
2022-12-11T04:55:39.213Z,-1.40
2022-12-11T04:59:01.078Z,-1.50
2022-12-11T05:02:24.103Z,-1.50
2022-12-11T05:05:47.784Z,-1.50
2022-12-11T05:09:10.947Z,-1.60
2022-12-11T05:12:33.096Z,-1.60
2022-12-11T05:15:54.690Z,-1.60
2022-12-11T05:19:17.629Z,-1.50
2022-12-11T05:22:39.387Z,-1.50
2022-12-11T05:26:02.128Z,-1.40
2022-12-11T05:29:23.707Z,-1.40
2022-12-11T05:32:45.317Z,-1.40
2022-12-11T05:36:08.708Z,-1.30
2022-12-11T05:39:30.329Z,-1.30
2022-12-11T05:42:51.949Z,-1.40
2022-12-11T05:46:14.538Z,-1.30
2022-12-11T05:49:36.289Z,-1.30
2022-12-11T05:52:59.211Z,-1.30
2022-12-11T05:56:21.539Z,-1.30
2022-12-11T05:59:43.297Z,-1.40
2022-12-11T06:03:04.981Z,-1.60
2022-12-11T06:06:27.589Z,-1.70
2022-12-11T06:09:50.511Z,-1.90
2022-12-11T06:13:12.192Z,-2.00
2022-12-11T06:16:33.787Z,-2.10
2022-12-11T06:19:55.506Z,-2.20
2022-12-11T06:23:17.101Z,-2.30
2022-12-11T06:26:40.076Z,-2.30
2022-12-11T06:30:01.663Z,-2.40
2022-12-11T06:33:23.253Z,-2.40
2022-12-11T06:36:44.843Z,-2.40
2022-12-11T06:40:07.375Z,-2.40
2022-12-11T06:43:30.649Z,-2.40
2022-12-11T06:46:52.255Z,-2.50
2022-12-11T06:50:13.835Z,-2.50
2022-12-11T06:53:35.443Z,-2.60
2022-12-11T06:56:57.030Z,-2.70
2022-12-11T07:00:20.115Z,-2.80
2022-12-11T07:03:41.751Z,-2.90
2022-12-11T07:07:03.377Z,-2.90
2022-12-11T07:10:24.956Z,-2.90
2022-12-11T07:13:46.771Z,-2.90
2022-12-11T07:17:09.720Z,-2.80
2022-12-11T07:20:31.364Z,-2.70
2022-12-11T07:23:53.146Z,-2.50
2022-12-11T07:27:14.805Z,-2.30
2022-12-11T07:30:37.868Z,-2.20
2022-12-11T07:34:01.684Z,-2.10
2022-12-11T07:37:23.259Z,-2.00
2022-12-11T07:40:44.830Z,-1.90
2022-12-11T07:44:06.525Z,-1.80
2022-12-11T07:47:28.095Z,-1.80
2022-12-11T07:50:51.033Z,-1.70
2022-12-11T07:54:13.478Z,-1.60
2022-12-11T07:57:35.048Z,-1.50
2022-12-11T08:00:56.638Z,-1.50
2022-12-11T08:04:18.249Z,-1.40
2022-12-11T08:07:41.170Z,-1.30
2022-12-11T08:11:03.215Z,-1.30
2022-12-11T08:14:24.781Z,-1.20
2022-12-11T08:17:46.465Z,-1.10
2022-12-11T08:21:08.160Z,-1.10
2022-12-11T08:24:31.141Z,-0.90
2022-12-11T08:27:52.724Z,-0.90
2022-12-11T08:31:16.308Z,-0.80
2022-12-11T08:34:37.923Z,-0.50
2022-12-11T08:37:59.499Z,-0.20
2022-12-11T08:41:23.288Z,-0.10
2022-12-11T08:44:44.856Z,-0.10
2022-12-11T08:48:06.609Z,-0.10
2022-12-11T08:51:28.783Z,0.00
2022-12-11T08:54:50.357Z,0.00
2022-12-11T08:58:13.339Z,0.10
2022-12-11T09:01:34.966Z,0.30
2022-12-11T09:04:56.587Z,0.30
2022-12-11T09:08:18.301Z,0.50
2022-12-11T09:11:39.925Z,0.50
2022-12-11T09:15:03.025Z,0.20
2022-12-11T09:18:24.595Z,0.10
2022-12-11T09:21:46.174Z,0.10
2022-12-11T09:25:08.234Z,0.20
2022-12-11T09:28:31.210Z,0.10
2022-12-11T09:31:54.144Z,0.10
2022-12-11T09:35:15.868Z,0.10
2022-12-11T09:38:37.930Z,-0.10
2022-12-11T09:42:04.180Z,-0.10
2022-12-11T09:45:26.198Z,0.00
2022-12-11T09:48:49.739Z,0.10
2022-12-11T09:52:13.755Z,0.20
2022-12-11T09:55:40.547Z,0.40
2022-12-11T09:59:04.183Z,0.30
2022-12-11T10:02:31.943Z,0.20
2022-12-11T10:06:04.038Z,0.30
2022-12-11T10:09:30.653Z,0.30
2022-12-11T10:13:00.618Z,0.50
2022-12-11T10:16:29.859Z,0.60
2022-12-11T10:19:51.512Z,0.60
2022-12-11T10:23:16.725Z,0.80
2022-12-11T10:26:38.998Z,0.80
2022-12-11T10:30:02.052Z,0.80
2022-12-11T10:33:27.308Z,0.90
2022-12-11T10:36:48.999Z,0.90
2022-12-11T10:40:12.287Z,0.90
2022-12-11T10:43:35.065Z,1.00
2022-12-11T10:47:03.847Z,1.10
2022-12-11T10:50:25.989Z,1.20
2022-12-11T10:53:49.960Z,1.10
2022-12-11T10:57:14.084Z,1.20
2022-12-11T11:00:37.067Z,1.30
2022-12-11T11:04:00.301Z,1.50
2022-12-11T11:07:22.777Z,1.50
2022-12-11T11:10:51.767Z,1.30
2022-12-11T11:14:15.798Z,1.30
2022-12-11T11:17:51.265Z,1.30
2022-12-11T11:21:16.870Z,1.30
2022-12-11T11:24:39.568Z,1.40
2022-12-11T11:28:02.291Z,1.20
2022-12-11T11:31:32.138Z,1.20
2022-12-11T11:34:53.770Z,1.10
2022-12-11T11:38:17.267Z,1.10
2022-12-11T11:41:43.219Z,1.00
2022-12-11T11:45:07.342Z,1.10
2022-12-11T11:48:35.381Z,1.00
2022-12-11T11:52:00.222Z,0.90
2022-12-11T11:55:37.621Z,0.80
2022-12-11T11:59:05.832Z,0.80
2022-12-11T12:02:27.687Z,0.90
2022-12-11T12:05:53.506Z,0.90
2022-12-11T12:09:21.687Z,1.20
2022-12-11T12:12:48.934Z,1.20
2022-12-11T12:16:50.485Z,1.30
2022-12-11T12:20:03.427Z,1.40
2022-12-11T12:23:36.681Z,1.30
2022-12-11T12:27:01.348Z,1.30
2022-12-11T12:30:24.095Z,1.30
2022-12-11T12:33:49.937Z,1.30
2022-12-11T12:37:16.097Z,1.40
2022-12-11T12:40:43.788Z,1.50
2022-12-11T12:44:13.728Z,1.70
2022-12-11T12:47:35.709Z,1.70
2022-12-11T12:50:57.456Z,1.80
2022-12-11T12:54:19.562Z,1.80
2022-12-11T12:57:46.074Z,1.80
2022-12-11T13:01:08.553Z,1.80
2022-12-11T13:08:24.346Z,1.90
2022-12-11T13:11:46.736Z,1.90
2022-12-11T13:15:26.263Z,1.80
2022-12-11T13:18:48.045Z,1.60
2022-12-11T13:22:21.684Z,1.60
2022-12-11T13:25:47.925Z,1.50
2022-12-11T13:29:24.407Z,1.50
2022-12-11T13:32:58.668Z,1.40
2022-12-11T13:36:31.289Z,1.60
2022-12-11T13:39:53.211Z,1.70
2022-12-11T13:43:17.975Z,1.60
2022-12-11T13:46:39.673Z,1.60
2022-12-11T13:50:07.397Z,1.60
2022-12-11T13:53:29.165Z,1.60
2022-12-11T13:57:00.882Z,1.50
2022-12-11T14:00:24.053Z,1.40
2022-12-11T14:03:50.181Z,1.40
2022-12-11T14:07:14.874Z,1.30
2022-12-11T14:10:36.730Z,1.20
2022-12-11T14:13:59.997Z,1.20
2022-12-11T14:17:23.759Z,1.10
2022-12-11T14:20:45.396Z,1.00
2022-12-11T14:24:13.546Z,0.90
2022-12-11T14:27:35.122Z,0.80
2022-12-11T14:30:58.228Z,0.70
2022-12-11T14:34:22.138Z,0.70
2022-12-11T14:37:43.812Z,0.70
2022-12-11T14:41:12.661Z,0.70
2022-12-11T14:44:38.610Z,0.60
2022-12-11T14:48:01.770Z,0.50
2022-12-11T14:51:23.616Z,0.40
2022-12-11T14:54:46.372Z,0.30
2022-12-11T14:58:14.951Z,0.20
2022-12-11T15:01:37.284Z,0.20
2022-12-11T15:05:05.140Z,0.10
2022-12-11T15:08:27.869Z,0.10
2022-12-11T15:11:49.953Z,0.00
2022-12-11T15:15:16.304Z,0.10
2022-12-11T15:18:40.487Z,0.00
2022-12-11T15:22:02.635Z,0.00
2022-12-11T15:25:25.113Z,0.00
2022-12-11T15:28:46.791Z,-0.10
2022-12-11T15:32:17.693Z,-0.10
2022-12-11T15:35:40.025Z,-0.10
2022-12-11T15:39:02.781Z,-0.10
2022-12-11T15:42:25.774Z,-0.10
2022-12-11T15:45:47.436Z,-0.10
2022-12-11T15:49:11.353Z,-0.20
2022-12-11T15:52:33.556Z,-0.30
2022-12-11T15:55:55.380Z,-0.30
2022-12-11T15:59:17.245Z,-0.30
2022-12-11T16:02:38.959Z,-0.40
2022-12-11T16:06:02.852Z,-0.50
2022-12-11T16:09:24.494Z,-0.50
2022-12-11T16:12:46.248Z,-0.50
2022-12-11T16:16:08.123Z,-0.60
2022-12-11T16:19:29.843Z,-0.70
2022-12-11T16:22:52.916Z,-0.70
2022-12-11T16:26:14.589Z,-0.80
2022-12-11T16:29:36.652Z,-0.80
2022-12-11T16:32:58.460Z,-0.90
2022-12-11T16:36:20.340Z,-1.00
2022-12-11T16:39:43.505Z,-1.00
2022-12-11T16:43:05.555Z,-1.10
2022-12-11T16:46:27.270Z,-1.20
2022-12-11T16:49:49.442Z,-1.20
2022-12-11T16:53:11.085Z,-1.20
2022-12-11T16:56:34.101Z,-1.30
2022-12-11T16:59:56.665Z,-1.30
2022-12-11T17:03:18.364Z,-1.30
2022-12-11T17:06:40.319Z,-1.30
2022-12-11T17:10:02.073Z,-1.20
2022-12-11T17:13:25.080Z,-1.20
2022-12-11T17:16:46.709Z,-1.10
2022-12-11T17:20:09.126Z,-1.10
2022-12-11T17:23:30.749Z,-1.10
2022-12-11T17:26:52.332Z,-1.10
2022-12-11T17:30:16.168Z,-1.10
2022-12-11T17:33:37.740Z,-1.10
2022-12-11T17:36:59.748Z,-1.10
2022-12-11T17:40:21.347Z,-1.10
2022-12-11T17:43:43.122Z,-1.10
2022-12-11T17:47:11.038Z,-1.10
2022-12-11T17:50:32.891Z,-1.10
2022-12-11T17:53:54.910Z,-1.10
2022-12-11T17:57:16.617Z,-1.10
2022-12-11T18:00:38.784Z,-1.20
2022-12-11T18:04:02.110Z,-1.20
2022-12-11T18:07:23.785Z,-1.20
2022-12-11T18:10:45.396Z,-1.20
2022-12-11T18:14:06.988Z,-1.30
2022-12-11T18:17:28.683Z,-1.40
2022-12-11T18:20:51.632Z,-1.50
2022-12-11T18:24:13.309Z,-1.50
2022-12-11T18:27:34.909Z,-1.60
2022-12-11T18:30:58.525Z,-1.60
2022-12-11T18:34:20.144Z,-1.60
2022-12-11T18:37:43.382Z,-1.60
2022-12-11T18:41:05.599Z,-1.50
2022-12-11T18:44:27.267Z,-1.40
2022-12-11T18:47:50.397Z,-1.30
2022-12-11T18:51:13.148Z,-1.20
2022-12-11T18:54:36.194Z,-1.10
2022-12-11T18:57:57.850Z,-1.00
2022-12-11T19:01:20.441Z,-1.00
2022-12-11T19:04:42.013Z,-1.00
2022-12-11T19:08:03.778Z,-0.90
2022-12-11T19:11:30.978Z,-0.90
2022-12-11T19:14:52.565Z,-1.00
2022-12-11T19:18:14.147Z,-1.00
2022-12-11T19:21:35.830Z,-1.10
2022-12-11T19:24:57.404Z,-1.00
2022-12-11T19:28:20.362Z,-1.10
2022-12-11T19:31:41.987Z,-1.10
2022-12-11T19:35:03.808Z,-1.20
2022-12-11T19:38:25.439Z,-1.30
2022-12-11T19:41:47.196Z,-1.40
2022-12-11T19:45:11.151Z,-1.40
2022-12-11T19:48:32.928Z,-1.50
2022-12-11T19:51:54.548Z,-1.60
2022-12-11T19:55:16.280Z,-1.80
2022-12-11T19:58:37.868Z,-1.90
2022-12-11T20:02:00.941Z,-2.10
2022-12-11T20:05:22.536Z,-2.10
2022-12-11T20:08:45.593Z,-2.10
2022-12-11T20:12:07.716Z,-2.20
2022-12-11T20:15:29.541Z,-2.30
2022-12-11T20:18:52.484Z,-2.30
2022-12-11T20:22:14.104Z,-2.40
2022-12-11T20:25:37.959Z,-2.40
2022-12-11T20:28:59.578Z,-2.40
2022-12-11T20:32:21.181Z,-2.50
2022-12-11T20:35:44.300Z,-2.50
2022-12-11T20:39:05.895Z,-2.60
2022-12-11T20:42:27.558Z,-2.50
2022-12-11T20:45:49.221Z,-2.40
2022-12-11T20:49:10.830Z,-2.40
2022-12-11T20:52:34.356Z,-2.40
2022-12-11T20:55:55.935Z,-2.40
2022-12-11T20:59:17.650Z,-2.40
2022-12-11T21:02:39.261Z,-2.50
2022-12-11T21:06:01.536Z,-2.40
2022-12-11T21:09:26.440Z,-2.50
2022-12-11T21:12:48.616Z,-2.50
2022-12-11T21:16:10.689Z,-2.40
2022-12-11T21:19:32.605Z,-2.40
2022-12-11T21:22:54.188Z,-2.30
2022-12-11T21:26:17.153Z,-2.20
2022-12-11T21:29:38.734Z,-2.20
2022-12-11T21:33:00.607Z,-2.10
2022-12-11T21:36:22.324Z,-2.10
2022-12-11T21:39:43.925Z,-2.10
2022-12-11T21:43:06.838Z,-2.10
2022-12-11T21:46:28.802Z,-2.10
2022-12-11T21:49:50.477Z,-2.00
2022-12-11T21:53:12.073Z,-2.00
2022-12-11T21:56:33.670Z,-2.00
2022-12-11T21:59:56.708Z,-1.90
2022-12-11T22:03:18.536Z,-1.80
2022-12-11T22:06:40.235Z,-1.70
2022-12-11T22:10:01.862Z,-1.60
2022-12-11T22:13:23.864Z,-1.50
2022-12-11T22:16:46.894Z,-1.50
2022-12-11T22:20:08.985Z,-1.50
2022-12-11T22:23:30.777Z,-1.50
2022-12-11T22:26:52.368Z,-1.50
2022-12-11T22:30:14.305Z,-1.50
2022-12-11T22:33:37.300Z,-1.50
2022-12-11T22:36:58.879Z,-1.40
2022-12-11T22:40:20.444Z,-1.40
2022-12-11T22:43:42.045Z,-1.40
2022-12-11T22:47:03.762Z,-1.40
2022-12-11T22:50:26.705Z,-1.30
2022-12-11T22:53:48.415Z,-1.20
2022-12-11T22:57:10.009Z,-1.20
2022-12-11T23:00:31.665Z,-1.20
2022-12-11T23:03:53.405Z,-1.30
2022-12-11T23:07:16.372Z,-1.20
2022-12-11T23:10:39.239Z,-1.20
2022-12-11T23:14:00.973Z,-1.20
2022-12-11T23:17:22.644Z,-1.20
2022-12-11T23:20:44.199Z,-1.20
2022-12-11T23:24:07.529Z,-1.20
2022-12-11T23:27:29.144Z,-1.20
2022-12-11T23:30:50.825Z,-1.10
2022-12-11T23:34:12.432Z,-1.10
2022-12-11T23:37:34.009Z,-1.10
2022-12-11T23:40:58.204Z,-1.10
2022-12-11T23:44:19.901Z,-1.10
2022-12-11T23:47:41.543Z,-1.10
2022-12-11T23:51:04.226Z,-1.10
2022-12-11T23:54:25.834Z,-1.10
2022-12-11T23:57:48.767Z,-1.10
